Time;durP1;ratioP1;P1;durP2;ratioP2;P2;SDS_P1;SDS_P2;PMS_P1;PMS_P2;Temp;Humidity;BMP_temperature;BMP_pressure;BME280_temperature;BME280_humidity;BME280_pressure;Samples;Min_cycle;Max_cycle;Signal;HPM_P1;HPM_P2
2023/05/13 00:01:03;;;;;;;12.80;7.90;;;;;;;-128.00;-1.00;-1.00;105729;1251;1004514;-73
2023/05/13 00:03:30;;;;;;;10.30;8.00;;;;;;;-128.00;-1.00;-1.00;105460;1251;1004108;-73
2023/05/13 00:05:57;;;;;;;8.80;7.90;;;;;;;-128.00;-1.00;-1.00;105752;1251;1003912;-73
2023/05/13 00:08:24;;;;;;;10.80;8.20;;;;;;;-128.00;-1.00;-1.00;105777;1251;1003992;-73
2023/05/13 00:10:50;;;;;;;9.90;8.50;;;;;;;-128.00;-1.00;-1.00;105792;1251;1004611;-73
2023/05/13 00:13:17;;;;;;;11.30;8.90;;;;;;;-128.00;-1.00;-1.00;105760;1251;1004189;-73
2023/05/13 00:15:43;;;;;;;10.70;9.60;;;;;;;-128.00;-1.00;-1.00;105715;1251;1004104;-72
2023/05/13 00:18:10;;;;;;;12.30;9.30;;;;;;;-128.00;-1.00;-1.00;105467;1253;1004019;-72
2023/05/13 00:20:36;;;;;;;11.40;10.10;;;;;;;-128.00;-1.00;-1.00;105499;1251;1004260;-73
2023/05/13 00:23:03;;;;;;;14.60;10.30;;;;;;;-128.00;-1.00;-1.00;105725;1251;1003513;-73
2023/05/13 00:25:29;;;;;;;11.70;9.70;;;;;;;-128.00;-1.00;-1.00;105737;1253;1004250;-73
2023/05/13 00:27:56;;;;;;;14.50;11.40;;;;;;;-128.00;-1.00;-1.00;105734;1251;1003535;-73
2023/05/13 00:30:23;;;;;;;12.30;10.10;;;;;;;-128.00;-1.00;-1.00;105402;1253;1004210;-73
2023/05/13 00:32:50;;;;;;;13.20;9.80;;;;;;;-128.00;-1.00;-1.00;105765;1251;1004842;-73
2023/05/13 00:35:17;;;;;;;12.90;11.10;;;;;;;-128.00;-1.00;-1.00;105743;1251;1004948;-74
2023/05/13 00:37:43;;;;;;;13.00;10.00;;;;;;;-128.00;-1.00;-1.00;105726;1251;1004332;-73
2023/05/13 00:40:19;;;;;;;12.00;10.80;;;;;;;-128.00;-1.00;-1.00;105734;1251;1003631;-73
2023/05/13 00:42:46;;;;;;;12.00;10.60;;;;;;;-128.00;-1.00;-1.00;105752;1251;1046668;-72
2023/05/13 00:45:12;;;;;;;14.90;10.20;;;;;;;-128.00;-1.00;-1.00;105772;1253;1004921;-73
2023/05/13 00:47:40;;;;;;;11.40;9.80;;;;;;;-128.00;-1.00;-1.00;105765;1252;1004011;-73
2023/05/13 00:50:08;;;;;;;10.70;9.60;;;;;;;-128.00;-1.00;-1.00;105742;1251;1004633;-73
2023/05/13 00:52:37;;;;;;;11.80;10.20;;;;;;;-128.00;-1.00;-1.00;105516;1251;1003353;-73
2023/05/13 00:55:04;;;;;;;11.20;10.10;;;;;;;-128.00;-1.00;-1.00;105670;1251;1046028;-73
2023/05/13 00:57:31;;;;;;;13.10;9.90;;;;;;;-128.00;-1.00;-1.00;105749;1251;1004819;-73
2023/05/13 00:59:58;;;;;;;12.00;10.70;;;;;;;-128.00;-1.00;-1.00;105744;1254;1003993;-73
2023/05/13 01:02:37;;;;;;;15.40;11.90;;;;;;;-128.00;-1.00;-1.00;105707;1251;1004394;-73
2023/05/13 01:05:13;;;;;;;15.50;14.00;;;;;;;-128.00;-1.00;-1.00;105739;1251;1058198;-73
2023/05/13 01:07:55;;;;;;;12.30;11.00;;;;;;;-128.00;-1.00;-1.00;105694;1251;1046822;-72
2023/05/13 01:10:38;;;;;;;15.90;14.10;;;;;;;-128.00;-1.00;-1.00;105796;1251;1046915;-72
2023/05/13 01:13:11;;;;;;;15.00;13.40;;;;;;;-128.00;-1.00;-1.00;105683;1251;1062684;-73
2023/05/13 01:15:44;;;;;;;15.00;13.50;;;;;;;-128.00;-1.00;-1.00;105723;1253;1057522;-72
2023/05/13 01:18:23;;;;;;;16.00;13.30;;;;;;;-128.00;-1.00;-1.00;105710;1253;1059501;-72
2023/05/13 01:20:49;;;;;;;18.10;13.50;;;;;;;-128.00;-1.00;-1.00;105753;1251;1045966;-72
2023/05/13 01:23:16;;;;;;;14.10;12.60;;;;;;;-128.00;-1.00;-1.00;105735;1255;1004675;-71
2023/05/13 01:25:44;;;;;;;15.10;13.50;;;;;;;-128.00;-1.00;-1.00;105703;1251;1004321;-73
2023/05/13 01:28:10;;;;;;;15.80;13.80;;;;;;;-128.00;-1.00;-1.00;105730;1251;1004465;-72
2023/05/13 01:30:38;;;;;;;15.50;13.70;;;;;;;-128.00;-1.00;-1.00;105745;1251;1004844;-72
2023/05/13 01:33:04;;;;;;;16.00;14.30;;;;;;;-128.00;-1.00;-1.00;105732;1251;1003571;-74
2023/05/13 01:35:32;;;;;;;18.20;15.40;;;;;;;-128.00;-1.00;-1.00;105746;1251;1004980;-72
2023/05/13 01:37:59;;;;;;;15.90;13.90;;;;;;;-128.00;-1.00;-1.00;105737;1251;1004334;-73
2023/05/13 01:40:26;;;;;;;17.60;15.80;;;;;;;-128.00;-1.00;-1.00;105604;1253;1004348;-72
2023/05/13 01:42:52;;;;;;;18.40;16.50;;;;;;;-128.00;-1.00;-1.00;105699;1251;1004559;-73
2023/05/13 01:45:19;;;;;;;17.90;16.20;;;;;;;-128.00;-1.00;-1.00;105736;1253;1004169;-73
2023/05/13 01:47:45;;;;;;;17.40;15.10;;;;;;;-128.00;-1.00;-1.00;105782;1251;1004175;-73
2023/05/13 01:50:12;;;;;;;31.60;16.20;;;;;;;-128.00;-1.00;-1.00;105442;1251;1004757;-73
2023/05/13 01:52:39;;;;;;;15.70;14.10;;;;;;;-128.00;-1.00;-1.00;105730;1251;1004601;-72
2023/05/13 01:55:06;;;;;;;19.90;14.60;;;;;;;-128.00;-1.00;-1.00;105738;1251;1003762;-73
2023/05/13 01:57:32;;;;;;;20.90;14.70;;;;;;;-128.00;-1.00;-1.00;105439;1251;1003936;-72
2023/05/13 01:59:59;;;;;;;20.30;15.30;;;;;;;-128.00;-1.00;-1.00;105738;1251;1004664;-73
2023/05/13 02:02:25;;;;;;;18.90;14.90;;;;;;;-128.00;-1.00;-1.00;105702;1251;1004366;-73
2023/05/13 02:04:52;;;;;;;17.10;15.10;;;;;;;-128.00;-1.00;-1.00;105750;1251;1004811;-73
2023/05/13 02:07:18;;;;;;;16.80;14.60;;;;;;;-128.00;-1.00;-1.00;105722;1251;1003917;-73
2023/05/13 02:09:45;;;;;;;15.80;14.20;;;;;;;-128.00;-1.00;-1.00;105734;1251;1004070;-73
2023/05/13 02:12:11;;;;;;;16.80;14.90;;;;;;;-128.00;-1.00;-1.00;105778;1251;1004071;-73
2023/05/13 02:14:38;;;;;;;18.40;15.40;;;;;;;-128.00;-1.00;-1.00;105695;1253;1005593;-73
2023/05/13 02:17:05;;;;;;;18.20;15.70;;;;;;;-128.00;-1.00;-1.00;105486;1253;1004317;-73
2023/05/13 02:19:31;;;;;;;18.30;16.40;;;;;;;-128.00;-1.00;-1.00;105694;1251;1003934;-73
2023/05/13 02:21:58;;;;;;;17.50;15.50;;;;;;;-128.00;-1.00;-1.00;105686;1251;1004533;-72
2023/05/13 02:24:24;;;;;;;16.80;15.00;;;;;;;-128.00;-1.00;-1.00;105699;1253;1004315;-73
2023/05/13 02:26:51;;;;;;;16.40;14.80;;;;;;;-128.00;-1.00;-1.00;105742;1251;1004178;-73
2023/05/13 02:29:18;;;;;;;19.80;16.80;;;;;;;-128.00;-1.00;-1.00;105705;1251;1004820;-73
2023/05/13 02:31:44;;;;;;;22.70;20.40;;;;;;;-128.00;-1.00;-1.00;105680;1251;1004114;-71
2023/05/13 02:34:11;;;;;;;20.30;18.30;;;;;;;-128.00;-1.00;-1.00;105725;1251;1003553;-72
2023/05/13 02:36:37;;;;;;;20.80;18.70;;;;;;;-128.00;-1.00;-1.00;105745;1251;1004579;-73
2023/05/13 02:39:04;;;;;;;18.30;16.40;;;;;;;-128.00;-1.00;-1.00;105772;1251;1004441;-72
2023/05/13 02:41:31;;;;;;;17.60;15.80;;;;;;;-128.00;-1.00;-1.00;105730;1251;1005221;-73
2023/05/13 02:43:57;;;;;;;18.90;17.00;;;;;;;-128.00;-1.00;-1.00;105698;1251;1004090;-73
2023/05/13 02:46:24;;;;;;;17.50;15.80;;;;;;;-128.00;-1.00;-1.00;105775;1251;1004570;-73
2023/05/13 02:48:50;;;;;;;19.30;17.00;;;;;;;-128.00;-1.00;-1.00;105746;1251;1003974;-72
2023/05/13 02:51:16;;;;;;;20.00;16.30;;;;;;;-128.00;-1.00;-1.00;105710;1251;1004687;-72
2023/05/13 02:53:43;;;;;;;19.30;15.70;;;;;;;-128.00;-1.00;-1.00;105736;1251;1004337;-73
2023/05/13 02:56:09;;;;;;;24.20;20.90;;;;;;;-128.00;-1.00;-1.00;105567;1251;1004299;-72
2023/05/13 02:58:36;;;;;;;20.60;18.40;;;;;;;-128.00;-1.00;-1.00;105714;1251;1004991;-73
2023/05/13 03:01:02;;;;;;;21.70;19.40;;;;;;;-128.00;-1.00;-1.00;105744;1251;1003844;-73
2023/05/13 03:03:29;;;;;;;23.50;19.60;;;;;;;-128.00;-1.00;-1.00;105682;1251;1003891;-73
2023/05/13 03:05:55;;;;;;;21.40;19.20;;;;;;;-128.00;-1.00;-1.00;105717;1253;1003800;-73
2023/05/13 03:08:22;;;;;;;23.50;20.00;;;;;;;-128.00;-1.00;-1.00;105690;1252;1004031;-72
2023/05/13 03:10:50;;;;;;;21.10;18.60;;;;;;;-128.00;-1.00;-1.00;105709;1252;1004721;-74
2023/05/13 03:13:16;;;;;;;21.50;19.30;;;;;;;-128.00;-1.00;-1.00;105733;1253;1004940;-74
2023/05/13 03:15:43;;;;;;;19.80;17.40;;;;;;;-128.00;-1.00;-1.00;105718;1256;1003245;-74
2023/05/13 03:18:10;;;;;;;19.00;16.50;;;;;;;-128.00;-1.00;-1.00;105699;1253;1004235;-72
2023/05/13 03:20:36;;;;;;;21.90;16.90;;;;;;;-128.00;-1.00;-1.00;105731;1253;1003868;-73
2023/05/13 03:23:03;;;;;;;17.40;15.60;;;;;;;-128.00;-1.00;-1.00;105509;1253;1004403;-73
2023/05/13 03:25:30;;;;;;;18.80;16.00;;;;;;;-128.00;-1.00;-1.00;105717;1255;1004463;-73
2023/05/13 03:27:56;;;;;;;17.50;15.00;;;;;;;-128.00;-1.00;-1.00;105751;1252;1003491;-73
2023/05/13 03:30:23;;;;;;;16.60;13.60;;;;;;;-128.00;-1.00;-1.00;105721;1253;1003676;-73
2023/05/13 03:32:49;;;;;;;17.70;14.50;;;;;;;-128.00;-1.00;-1.00;105712;1252;1004531;-73
2023/05/13 03:35:16;;;;;;;15.20;13.60;;;;;;;-128.00;-1.00;-1.00;105749;1255;1003713;-73
2023/05/13 03:37:42;;;;;;;15.00;13.40;;;;;;;-128.00;-1.00;-1.00;105591;1252;1004394;-73
2023/05/13 03:40:09;;;;;;;15.80;14.10;;;;;;;-128.00;-1.00;-1.00;105733;1254;1004415;-73
2023/05/13 03:42:36;;;;;;;14.40;11.80;;;;;;;-128.00;-1.00;-1.00;105391;1260;1004345;-73
2023/05/13 03:45:03;;;;;;;12.80;10.20;;;;;;;-128.00;-1.00;-1.00;105501;1254;1004360;-73
2023/05/13 03:47:29;;;;;;;11.10;9.90;;;;;;;-128.00;-1.00;-1.00;105715;1252;1003349;-73
2023/05/13 03:49:56;;;;;;;10.70;8.60;;;;;;;-128.00;-1.00;-1.00;105736;1254;1003644;-72
2023/05/13 03:52:22;;;;;;;10.40;9.20;;;;;;;-128.00;-1.00;-1.00;105728;1252;1004006;-74
2023/05/13 03:54:49;;;;;;;11.30;8.40;;;;;;;-128.00;-1.00;-1.00;105689;1254;1004931;-73
2023/05/13 03:57:15;;;;;;;11.90;8.50;;;;;;;-128.00;-1.00;-1.00;105719;1252;1004930;-73
2023/05/13 03:59:42;;;;;;;10.00;8.40;;;;;;;-128.00;-1.00;-1.00;105708;1253;1004778;-72
2023/05/13 04:02:09;;;;;;;10.80;8.50;;;;;;;-128.00;-1.00;-1.00;105693;1253;1003944;-73
2023/05/13 04:04:35;;;;;;;10.00;8.90;;;;;;;-128.00;-1.00;-1.00;105725;1252;1004844;-72
2023/05/13 04:07:02;;;;;;;9.60;8.20;;;;;;;-128.00;-1.00;-1.00;105756;1253;1004396;-73
2023/05/13 04:09:28;;;;;;;11.50;8.50;;;;;;;-128.00;-1.00;-1.00;105750;1253;1004128;-74
2023/05/13 04:11:55;;;;;;;10.30;9.10;;;;;;;-128.00;-1.00;-1.00;105712;1252;1004695;-72
2023/05/13 04:14:22;;;;;;;10.70;8.40;;;;;;;-128.00;-1.00;-1.00;105746;1251;1005813;-72
2023/05/13 04:16:48;;;;;;;12.20;9.00;;;;;;;-128.00;-1.00;-1.00;105697;1251;1003905;-73
2023/05/13 04:19:15;;;;;;;12.50;9.30;;;;;;;-128.00;-1.00;-1.00;105734;1251;1004440;-73
2023/05/13 04:21:41;;;;;;;11.10;9.20;;;;;;;-128.00;-1.00;-1.00;105697;1251;1004028;-72
2023/05/13 04:24:07;;;;;;;9.20;8.20;;;;;;;-128.00;-1.00;-1.00;105503;1251;1004521;-73
2023/05/13 04:26:36;;;;;;;12.10;8.70;;;;;;;-128.00;-1.00;-1.00;105730;1255;1003917;-73
2023/05/13 04:29:03;;;;;;;12.30;8.70;;;;;;;-128.00;-1.00;-1.00;105740;1251;1061735;-73
2023/05/13 04:31:29;;;;;;;10.70;9.40;;;;;;;-128.00;-1.00;-1.00;105689;1251;1003714;-73
2023/05/13 04:33:56;;;;;;;10.70;9.30;;;;;;;-128.00;-1.00;-1.00;105696;1251;1003892;-73
2023/05/13 04:36:22;;;;;;;10.20;8.40;;;;;;;-128.00;-1.00;-1.00;105685;1251;1005124;-73
2023/05/13 04:38:49;;;;;;;11.20;8.50;;;;;;;-128.00;-1.00;-1.00;105796;1251;1004568;-73
2023/05/13 04:41:15;;;;;;;9.80;8.90;;;;;;;-128.00;-1.00;-1.00;105742;1251;1004941;-73
2023/05/13 04:43:42;;;;;;;9.90;8.40;;;;;;;-128.00;-1.00;-1.00;105553;1251;1003647;-73
2023/05/13 04:46:08;;;;;;;10.20;8.20;;;;;;;-128.00;-1.00;-1.00;105695;1251;1003763;-73
2023/05/13 04:48:35;;;;;;;8.30;7.30;;;;;;;-128.00;-1.00;-1.00;105724;1251;1004380;-73
2023/05/13 04:51:01;;;;;;;9.50;7.90;;;;;;;-128.00;-1.00;-1.00;105758;1251;1004316;-74
2023/05/13 04:53:28;;;;;;;14.00;7.50;;;;;;;-128.00;-1.00;-1.00;105629;1251;1004205;-74
2023/05/13 04:55:59;;;;;;;10.10;8.10;;;;;;;-128.00;-1.00;-1.00;105763;1251;1004189;-73
2023/05/13 04:58:27;;;;;;;11.00;7.80;;;;;;;-128.00;-1.00;-1.00;105506;1251;1059729;-73
2023/05/13 05:00:53;;;;;;;10.80;7.40;;;;;;;-128.00;-1.00;-1.00;105672;1252;1003964;-73
2023/05/13 05:03:20;;;;;;;9.30;7.10;;;;;;;-128.00;-1.00;-1.00;105689;1251;1004858;-73
2023/05/13 05:05:47;;;;;;;8.30;7.40;;;;;;;-128.00;-1.00;-1.00;105643;1251;1004343;-73
2023/05/13 05:08:13;;;;;;;9.10;7.30;;;;;;;-128.00;-1.00;-1.00;105692;1251;1004555;-73
2023/05/13 05:10:40;;;;;;;9.20;8.00;;;;;;;-128.00;-1.00;-1.00;105691;1251;1005104;-73
2023/05/13 05:13:08;;;;;;;7.90;7.00;;;;;;;-128.00;-1.00;-1.00;105687;1251;1004177;-73
2023/05/13 05:15:35;;;;;;;10.40;7.20;;;;;;;-128.00;-1.00;-1.00;105687;1251;1047291;-73
2023/05/13 05:18:02;;;;;;;8.40;7.40;;;;;;;-128.00;-1.00;-1.00;105567;1251;1003349;-73
2023/05/13 05:20:28;;;;;;;9.00;7.90;;;;;;;-128.00;-1.00;-1.00;105690;1251;1005277;-73
2023/05/13 05:22:55;;;;;;;11.60;7.60;;;;;;;-128.00;-1.00;-1.00;105725;1251;1003798;-72
2023/05/13 05:25:23;;;;;;;11.10;8.50;;;;;;;-128.00;-1.00;-1.00;105707;1251;1004261;-73
2023/05/13 05:27:50;;;;;;;9.50;7.10;;;;;;;-128.00;-1.00;-1.00;105683;1251;1047716;-73
2023/05/13 05:30:17;;;;;;;9.50;7.10;;;;;;;-128.00;-1.00;-1.00;105550;1251;1003581;-73
2023/05/13 05:32:43;;;;;;;10.10;7.20;;;;;;;-128.00;-1.00;-1.00;105675;1251;1003947;-74
2023/05/13 05:35:10;;;;;;;10.40;7.00;;;;;;;-128.00;-1.00;-1.00;105710;1251;1004119;-74
2023/05/13 05:37:37;;;;;;;8.60;7.30;;;;;;;-128.00;-1.00;-1.00;105690;1251;1004354;-73
2023/05/13 05:40:04;;;;;;;9.50;6.90;;;;;;;-128.00;-1.00;-1.00;105707;1251;1005829;-73
2023/05/13 05:42:30;;;;;;;22.60;9.10;;;;;;;-128.00;-1.00;-1.00;105715;1251;1004513;-73
2023/05/13 05:44:56;;;;;;;11.40;7.70;;;;;;;-128.00;-1.00;-1.00;105733;1251;1003706;-73
2023/05/13 05:47:23;;;;;;;12.90;7.90;;;;;;;-128.00;-1.00;-1.00;105699;1251;1004291;-73
2023/05/13 05:49:49;;;;;;;7.30;6.60;;;;;;;-128.00;-1.00;-1.00;105697;1251;1004050;-74
2023/05/13 05:52:16;;;;;;;8.60;7.40;;;;;;;-128.00;-1.00;-1.00;105728;1251;1004954;-73
2023/05/13 05:54:42;;;;;;;8.70;7.80;;;;;;;-128.00;-1.00;-1.00;105753;1251;1004207;-73
2023/05/13 05:57:09;;;;;;;8.90;7.90;;;;;;;-128.00;-1.00;-1.00;105737;1251;1004641;-73
2023/05/13 05:59:35;;;;;;;7.50;6.80;;;;;;;-128.00;-1.00;-1.00;105542;1251;1005141;-72
2023/05/13 06:02:03;;;;;;;8.60;7.70;;;;;;;-128.00;-1.00;-1.00;105733;1251;1005196;-73
2023/05/13 06:04:29;;;;;;;8.90;8.00;;;;;;;-128.00;-1.00;-1.00;105797;1251;1004153;-73
2023/05/13 06:06:56;;;;;;;8.40;7.10;;;;;;;-128.00;-1.00;-1.00;105739;1251;1005806;-74
2023/05/13 06:09:22;;;;;;;8.70;6.70;;;;;;;-128.00;-1.00;-1.00;105770;1251;1003720;-74
2023/05/13 06:11:49;;;;;;;8.40;7.20;;;;;;;-128.00;-1.00;-1.00;105698;1251;1003719;-74
2023/05/13 06:14:16;;;;;;;6.70;6.10;;;;;;;-128.00;-1.00;-1.00;105722;1251;1003962;-74
2023/05/13 06:16:43;;;;;;;8.10;7.00;;;;;;;-128.00;-1.00;-1.00;105763;1251;1004777;-74
2023/05/13 06:19:09;;;;;;;7.60;6.60;;;;;;;-128.00;-1.00;-1.00;105738;1251;1004145;-73
2023/05/13 06:21:36;;;;;;;9.60;6.70;;;;;;;-128.00;-1.00;-1.00;105713;1251;1004125;-74
2023/05/13 06:24:03;;;;;;;7.40;6.60;;;;;;;-128.00;-1.00;-1.00;105716;1251;1004486;-74
2023/05/13 06:26:29;;;;;;;7.60;6.40;;;;;;;-128.00;-1.00;-1.00;105666;1251;1004222;-74
2023/05/13 06:28:56;;;;;;;7.00;5.90;;;;;;;-128.00;-1.00;-1.00;105728;1251;1004459;-73
2023/05/13 06:31:22;;;;;;;6.50;5.90;;;;;;;-128.00;-1.00;-1.00;105710;1251;1003670;-73
2023/05/13 06:33:49;;;;;;;6.30;5.60;;;;;;;-128.00;-1.00;-1.00;105655;1251;1004152;-73
2023/05/13 06:36:15;;;;;;;6.30;4.90;;;;;;;-128.00;-1.00;-1.00;105716;1251;1004715;-74
2023/05/13 06:38:42;;;;;;;6.30;4.70;;;;;;;-128.00;-1.00;-1.00;105673;1251;1003610;-74
2023/05/13 06:41:08;;;;;;;6.00;5.00;;;;;;;-128.00;-1.00;-1.00;105777;1251;1003341;-74
2023/05/13 06:43:35;;;;;;;5.60;4.60;;;;;;;-128.00;-1.00;-1.00;105757;1251;1003735;-74
2023/05/13 06:46:02;;;;;;;7.00;4.40;;;;;;;-128.00;-1.00;-1.00;105747;1251;1003784;-74
2023/05/13 06:48:28;;;;;;;6.20;4.90;;;;;;;-128.00;-1.00;-1.00;105736;1251;1004279;-73
2023/05/13 06:50:55;;;;;;;7.50;5.70;;;;;;;-128.00;-1.00;-1.00;105537;1251;1004623;-74
2023/05/13 06:53:21;;;;;;;5.00;4.00;;;;;;;-128.00;-1.00;-1.00;105742;1251;1004492;-73
2023/05/13 06:55:49;;;;;;;8.20;4.30;;;;;;;-128.00;-1.00;-1.00;105749;1251;1004982;-74
2023/05/13 06:58:15;;;;;;;6.00;4.30;;;;;;;-128.00;-1.00;-1.00;105711;1251;1005001;-74
2023/05/13 07:00:42;;;;;;;5.80;4.20;;;;;;;-128.00;-1.00;-1.00;105704;1251;1004855;-73
2023/05/13 07:03:08;;;;;;;8.10;6.50;;;;;;;-128.00;-1.00;-1.00;105723;1251;1004477;-74
2023/05/13 07:05:35;;;;;;;9.50;7.70;;;;;;;-128.00;-1.00;-1.00;105593;1251;1005050;-74
2023/05/13 07:08:05;;;;;;;8.60;7.50;;;;;;;-128.00;-1.00;-1.00;105714;1251;1004553;-74
2023/05/13 07:10:32;;;;;;;7.40;4.90;;;;;;;-128.00;-1.00;-1.00;105676;1251;1056306;-73
2023/05/13 07:13:00;;;;;;;4.50;4.10;;;;;;;-128.00;-1.00;-1.00;105665;1251;1003812;-74
2023/05/13 07:15:27;;;;;;;11.50;9.30;;;;;;;-128.00;-1.00;-1.00;105683;1251;1004858;-74
2023/05/13 07:17:54;;;;;;;6.00;5.40;;;;;;;-128.00;-1.00;-1.00;105703;1251;1004943;-74
2023/05/13 07:20:22;;;;;;;6.60;4.70;;;;;;;-128.00;-1.00;-1.00;105623;1251;1004503;-73
2023/05/13 07:22:48;;;;;;;6.00;5.20;;;;;;;-128.00;-1.00;-1.00;105709;1251;1004614;-73
2023/05/13 07:25:16;;;;;;;6.40;5.30;;;;;;;-128.00;-1.00;-1.00;105679;1251;1004045;-73
2023/05/13 07:27:43;;;;;;;7.00;5.10;;;;;;;-128.00;-1.00;-1.00;105770;1251;1004303;-73
2023/05/13 07:30:11;;;;;;;7.70;6.40;;;;;;;-128.00;-1.00;-1.00;105772;1251;1003773;-72
2023/05/13 07:32:38;;;;;;;5.80;5.30;;;;;;;-128.00;-1.00;-1.00;105598;1251;1004577;-73
2023/05/13 07:35:06;;;;;;;11.50;5.00;;;;;;;-128.00;-1.00;-1.00;105792;1251;1005061;-72
2023/05/13 07:37:32;;;;;;;7.40;5.90;;;;;;;-128.00;-1.00;-1.00;105662;1251;1003734;-73
2023/05/13 07:39:59;;;;;;;4.90;4.40;;;;;;;-128.00;-1.00;-1.00;105550;1251;1004779;-74
2023/05/13 07:42:26;;;;;;;4.30;3.90;;;;;;;-128.00;-1.00;-1.00;105724;1251;1004394;-74
2023/05/13 07:44:53;;;;;;;3.70;3.40;;;;;;;-128.00;-1.00;-1.00;105726;1251;1004057;-74
2023/05/13 07:47:19;;;;;;;6.70;4.90;;;;;;;-128.00;-1.00;-1.00;105721;1251;1004715;-74
2023/05/13 07:49:46;;;;;;;4.10;3.50;;;;;;;-128.00;-1.00;-1.00;105711;1251;1004171;-74
2023/05/13 07:52:12;;;;;;;7.40;4.50;;;;;;;-128.00;-1.00;-1.00;105684;1251;1004240;-74
2023/05/13 07:54:39;;;;;;;5.70;5.10;;;;;;;-128.00;-1.00;-1.00;105674;1251;1003577;-74
2023/05/13 07:57:05;;;;;;;3.70;3.00;;;;;;;-128.00;-1.00;-1.00;105741;1251;1003945;-74
2023/05/13 07:59:32;;;;;;;6.30;4.50;;;;;;;-128.00;-1.00;-1.00;105758;1251;1003965;-74
2023/05/13 08:01:58;;;;;;;7.20;4.00;;;;;;;-128.00;-1.00;-1.00;105690;1251;1004449;-73
2023/05/13 08:04:25;;;;;;;5.30;3.50;;;;;;;-128.00;-1.00;-1.00;105710;1251;1003429;-74
2023/05/13 08:06:52;;;;;;;4.30;3.40;;;;;;;-128.00;-1.00;-1.00;105750;1251;1003704;-74
2023/05/13 08:09:18;;;;;;;3.80;2.70;;;;;;;-128.00;-1.00;-1.00;105773;1251;1003598;-75
2023/05/13 08:11:45;;;;;;;3.60;3.10;;;;;;;-128.00;-1.00;-1.00;105727;1251;1003712;-74
2023/05/13 08:14:11;;;;;;;5.50;3.00;;;;;;;-128.00;-1.00;-1.00;105740;1251;1004521;-74
2023/05/13 08:16:38;;;;;;;3.00;2.70;;;;;;;-128.00;-1.00;-1.00;105754;1251;1004046;-74
2023/05/13 08:19:04;;;;;;;4.40;2.60;;;;;;;-128.00;-1.00;-1.00;105751;1252;1004499;-74
2023/05/13 08:21:31;;;;;;;3.90;2.30;;;;;;;-128.00;-1.00;-1.00;105701;1251;1005691;-74
2023/05/13 08:23:58;;;;;;;3.30;2.40;;;;;;;-128.00;-1.00;-1.00;105789;1251;1003350;-74
2023/05/13 08:26:24;;;;;;;4.00;2.30;;;;;;;-128.00;-1.00;-1.00;105737;1251;1005819;-74
2023/05/13 08:28:50;;;;;;;3.20;2.30;;;;;;;-128.00;-1.00;-1.00;105672;1251;1004189;-74
2023/05/13 08:31:17;;;;;;;5.70;2.70;;;;;;;-128.00;-1.00;-1.00;105744;1251;1003719;-74
2023/05/13 08:33:46;;;;;;;2.60;2.40;;;;;;;-128.00;-1.00;-1.00;105744;1251;1004106;-74
2023/05/13 08:36:13;;;;;;;5.10;2.60;;;;;;;-128.00;-1.00;-1.00;105741;1251;1055007;-74
2023/05/13 08:38:41;;;;;;;3.90;2.60;;;;;;;-128.00;-1.00;-1.00;105731;1251;1004775;-74
2023/05/13 08:41:13;;;;;;;3.70;3.00;;;;;;;-128.00;-1.00;-1.00;105733;1251;1004274;-74
2023/05/13 08:43:45;;;;;;;5.60;3.30;;;;;;;-128.00;-1.00;-1.00;105620;1251;1048104;-74
2023/05/13 08:46:15;;;;;;;8.10;3.50;;;;;;;-128.00;-1.00;-1.00;105643;1251;1061189;-75
2023/05/13 08:48:42;;;;;;;;;;;;;;;-128.00;-1.00;-1.00;105745;1251;1055343;-74
2023/05/13 08:51:08;;;;;;;4.40;3.10;;;;;;;-128.00;-1.00;-1.00;105737;1251;1005096;-74
2023/05/13 08:53:38;;;;;;;4.20;2.90;;;;;;;-128.00;-1.00;-1.00;105697;1251;1004140;-74
2023/05/13 08:56:07;;;;;;;3.10;2.90;;;;;;;-128.00;-1.00;-1.00;105817;1251;1046270;-74
2023/05/13 08:58:34;;;;;;;3.80;3.40;;;;;;;-128.00;-1.00;-1.00;105711;1251;1062220;-74
2023/05/13 09:01:02;;;;;;;4.10;2.50;;;;;;;-128.00;-1.00;-1.00;105649;1251;1004335;-74
2023/05/13 09:03:30;;;;;;;3.40;3.10;;;;;;;-128.00;-1.00;-1.00;105749;1251;1058863;-74
2023/05/13 09:06:00;;;;;;;4.50;2.70;;;;;;;-128.00;-1.00;-1.00;105704;1251;1004113;-74
2023/05/13 09:08:26;;;;;;;3.20;3.00;;;;;;;-128.00;-1.00;-1.00;105638;1251;1047389;-74
2023/05/13 09:10:53;;;;;;;3.80;3.50;;;;;;;-128.00;-1.00;-1.00;105684;1251;1004888;-74
2023/05/13 09:13:20;;;;;;;6.00;3.80;;;;;;;-128.00;-1.00;-1.00;105769;1251;1006058;-74
2023/05/13 09:15:49;;;;;;;4.10;2.70;;;;;;;-128.00;-1.00;-1.00;105757;1251;1004576;-74
2023/05/13 09:18:15;;;;;;;3.00;2.70;;;;;;;-128.00;-1.00;-1.00;105709;1251;1044760;-74
2023/05/13 09:20:42;;;;;;;4.40;2.60;;;;;;;-128.00;-1.00;-1.00;105733;1251;1004166;-74
2023/05/13 09:23:09;;;;;;;5.00;2.70;;;;;;;-128.00;-1.00;-1.00;105707;1251;1003995;-74
2023/05/13 09:25:37;;;;;;;3.20;2.60;;;;;;;-128.00;-1.00;-1.00;105667;1251;1004062;-75
2023/05/13 09:28:06;;;;;;;4.60;2.90;;;;;;;-128.00;-1.00;-1.00;105661;1251;1004220;-73
2023/05/13 09:30:39;;;;;;;5.10;3.20;;;;;;;-128.00;-1.00;-1.00;105647;1251;1044178;-73
2023/05/13 09:33:18;;;;;;;4.10;2.60;;;;;;;-128.00;-1.00;-1.00;105782;1251;1046569;-73
2023/05/13 09:35:51;;;;;;;2.80;2.60;;;;;;;-128.00;-1.00;-1.00;105435;1251;1060926;-73
2023/05/13 09:38:24;;;;;;;3.50;2.60;;;;;;;-128.00;-1.00;-1.00;105642;1251;1055955;-73
2023/05/13 09:40:52;;;;;;;3.40;2.70;;;;;;;-128.00;-1.00;-1.00;105762;1251;1058576;-75
2023/05/13 09:43:25;;;;;;;3.20;2.50;;;;;;;-128.00;-1.00;-1.00;105728;1251;1003744;-74
2023/05/13 09:45:54;;;;;;;3.80;2.50;;;;;;;-128.00;-1.00;-1.00;105678;1251;1046705;-73
2023/05/13 09:48:25;;;;;;;2.40;2.20;;;;;;;-128.00;-1.00;-1.00;105765;1251;1060706;-73
2023/05/13 09:50:54;;;;;;;4.50;2.40;;;;;;;-128.00;-1.00;-1.00;105724;1251;1056663;-73
2023/05/13 09:53:20;;;;;;;2.60;2.40;;;;;;;-128.00;-1.00;-1.00;105601;1251;1004184;-72
2023/05/13 09:55:49;;;;;;;2.70;2.20;;;;;;;-128.00;-1.00;-1.00;105692;1251;1004335;-73
2023/05/13 09:58:16;;;;;;;3.40;2.00;;;;;;;-128.00;-1.00;-1.00;105712;1251;1004143;-73
2023/05/13 10:00:42;;;;;;;3.70;2.10;;;;;;;-128.00;-1.00;-1.00;105766;1251;1004174;-74
2023/05/13 10:03:10;;;;;;;3.50;2.30;;;;;;;-128.00;-1.00;-1.00;105688;1251;1005092;-73
2023/05/13 10:05:38;;;;;;;2.80;2.60;;;;;;;-128.00;-1.00;-1.00;105731;1251;1003812;-73
2023/05/13 10:08:08;;;;;;;3.30;2.80;;;;;;;-128.00;-1.00;-1.00;105378;1254;1003697;-73
2023/05/13 10:10:35;;;;;;;2.60;2.30;;;;;;;-128.00;-1.00;-1.00;105526;1254;1046709;-73
2023/05/13 10:13:07;;;;;;;5.90;2.20;;;;;;;-128.00;-1.00;-1.00;105523;1254;1005152;-73
2023/05/13 10:15:33;;;;;;;2.60;2.40;;;;;;;-128.00;-1.00;-1.00;105403;1254;1055539;-73
2023/05/13 10:18:01;;;;;;;3.40;2.20;;;;;;;-128.00;-1.00;-1.00;105519;1254;1005137;-73
2023/05/13 10:20:27;;;;;;;2.20;2.00;;;;;;;-128.00;-1.00;-1.00;105531;1254;1003985;-74
2023/05/13 10:22:54;;;;;;;2.80;2.20;;;;;;;-128.00;-1.00;-1.00;105563;1254;1004431;-74
2023/05/13 10:25:21;;;;;;;2.10;1.90;;;;;;;-128.00;-1.00;-1.00;105532;1254;1005550;-73
2023/05/13 10:27:49;;;;;;;3.20;2.40;;;;;;;-128.00;-1.00;-1.00;105528;1254;1004449;-74
2023/05/13 10:30:16;;;;;;;5.80;2.20;;;;;;;-128.00;-1.00;-1.00;105525;1254;1059864;-74
2023/05/13 10:32:43;;;;;;;3.00;1.80;;;;;;;-128.00;-1.00;-1.00;105521;1254;1004375;-74
2023/05/13 10:35:12;;;;;;;4.60;1.80;;;;;;;-128.00;-1.00;-1.00;105544;1254;1004760;-74
2023/05/13 10:37:41;;;;;;;6.00;1.50;;;;;;;-128.00;-1.00;-1.00;105527;1254;1062138;-73
2023/05/13 10:40:42;;;;;;;3.10;1.70;;;;;;;-128.00;-1.00;-1.00;105666;1251;1055615;-74
2023/05/13 10:43:17;;;;;;;4.30;2.00;;;;;;;-128.00;-1.00;-1.00;105713;1251;1060289;-73
2023/05/13 10:45:49;;;;;;;2.80;2.40;;;;;;;-128.00;-1.00;-1.00;105728;1251;1045311;-73
2023/05/13 10:48:17;;;;;;;3.20;2.00;;;;;;;-128.00;-1.00;-1.00;105731;1251;1047073;-74
2023/05/13 10:50:54;;;;;;;3.20;1.90;;;;;;;-128.00;-1.00;-1.00;105723;1251;1004259;-73
2023/05/13 10:53:23;;;;;;;4.90;2.10;;;;;;;-128.00;-1.00;-1.00;105718;1251;1055589;-73
2023/05/13 10:55:53;;;;;;;3.50;1.90;;;;;;;-128.00;-1.00;-1.00;105740;1251;1059845;-74
2023/05/13 10:58:23;;;;;;;3.00;1.80;;;;;;;-128.00;-1.00;-1.00;105624;1251;1044672;-73
2023/05/13 11:00:49;;;;;;;6.90;2.10;;;;;;;-128.00;-1.00;-1.00;105720;1251;1048548;-73
2023/05/13 11:03:19;;;;;;;2.50;1.70;;;;;;;-128.00;-1.00;-1.00;105734;1251;1004299;-74
2023/05/13 11:05:58;;;;;;;3.00;1.90;;;;;;;-128.00;-1.00;-1.00;105721;1251;1056317;-74
2023/05/13 11:08:51;;;;;;;4.30;2.20;;;;;;;-128.00;-1.00;-1.00;105711;1251;1059636;-74
2023/05/13 11:11:21;;;;;;;4.90;2.40;;;;;;;-128.00;-1.00;-1.00;105136;1258;1044093;-74
2023/05/13 11:14:07;;;;;;;3.30;2.40;;;;;;;-128.00;-1.00;-1.00;105186;1258;1047711;-74